NCAR-RAP Real-Time Weather Data

Output produced by METARs form (21 February 2017  05:51 UTC)
found at http://weather.rap.ucar.edu/surface/
 
Conditions at: KLOU observed 21 February 2017  04:53 UTC
Temperature: 15.6°C (60°F)
Dewpoint: 6.1°C (43°F) [RH = 53%]
Pressure (altimeter): 30.02 inches Hg (1016.7 mb)
[Sea-level pressure: 1016.5 mb]
Winds: calm
Visibility: 10 or more miles (16+ km)
Ceiling: at least 12,000 feet AGL
Clouds: sky clear below 12,000 feet AGL
Present Weather: automated observation with no human augmentation;
there may or may not be significant weather present at this time
KLOU 210453Z AUTO 00000KT 10SM CLR 16/06 A3002 RMK AO2 SLP165 T01560061 402330028